Time;durP1;ratioP1;P1;durP2;ratioP2;P2;SDS_P1;SDS_P2;PMS_P1;PMS_P2;Temp;Humidity;BMP_temperature;BMP_pressure;BME280_temperature;BME280_humidity;BME280_pressure;Samples;Min_cycle;Max_cycle;Signal;HPM_P1;HPM_P2
2022/07/22 00:00:01;;;;;;;0.15;0.10;;;14.90;99.90;;;;;;5017581;28;20050;-88
2022/07/22 00:02:27;;;;;;;0.55;0.35;;;14.50;99.90;;;;;;5018449;28;20046;-89
2022/07/22 00:04:53;;;;;;;1.42;0.28;;;14.30;99.90;;;;;;5018430;28;20065;-88
2022/07/22 00:07:18;;;;;;;0.00;0.00;;;14.50;99.90;;;;;;5019762;28;20046;-89
2022/07/22 00:09:44;;;;;;;10.30;0.40;;;14.50;99.90;;;;;;5020607;28;20140;-89
2022/07/22 00:12:10;;;;;;;0.03;0.03;;;14.50;99.90;;;;;;5021322;28;20186;-88
2022/07/22 00:14:51;;;;;;;0.45;0.28;;;14.50;99.90;;;;;;5023264;28;20046;-88
2022/07/22 00:17:16;;;;;;;0.20;0.20;;;14.90;99.90;;;;;;5027518;28;20026;-90
2022/07/22 00:19:42;;;;;;;5.13;2.13;;;14.60;99.90;;;;;;5030428;28;20049;-88
2022/07/22 00:22:07;;;;;;;0.25;0.25;;;14.60;99.90;;;;;;5028190;28;20042;-89
2022/07/22 00:24:36;;;;;;;0.00;0.00;;;14.60;99.90;;;;;;5026468;28;20083;-89
2022/07/22 00:27:01;;;;;;;0.25;0.22;;;14.60;99.90;;;;;;5036853;28;20033;-89
2022/07/22 00:29:27;;;;;;;0.00;0.00;;;14.80;99.90;;;;;;5035819;28;20038;-89
2022/07/22 00:31:53;;;;;;;0.57;0.20;;;14.60;99.90;;;;;;5035966;28;20088;-88
2022/07/22 00:34:18;;;;;;;0.00;0.00;;;14.60;99.90;;;;;;5068611;28;20034;-87
2022/07/22 00:36:44;;;;;;;0.43;0.30;;;14.80;99.90;;;;;;5032019;28;20049;-89
2022/07/22 00:39:09;;;;;;;0.38;0.22;;;15.20;99.90;;;;;;5021400;28;20044;-89
2022/07/22 00:41:35;;;;;;;0.47;0.22;;;15.50;99.90;;;;;;5021022;28;20492;-89
2022/07/22 00:44:10;;;;;;;0.00;0.00;;;15.80;99.90;;;;;;5023531;28;20093;-89
2022/07/22 00:46:37;;;;;;;0.57;0.52;;;14.70;99.90;;;;;;5024664;28;20046;-90
2022/07/22 00:49:08;;;;;;;0.47;0.30;;;14.70;99.90;;;;;;5025013;28;20101;-87
2022/07/22 00:51:34;;;;;;;0.40;0.30;;;14.70;99.90;;;;;;5036853;28;20046;-88
2022/07/22 00:54:00;;;;;;;0.10;0.10;;;14.70;99.90;;;;;;5070023;28;20018;-87
2022/07/22 00:56:27;;;;;;;0.50;0.50;;;14.70;99.90;;;;;;5037626;28;20077;-88
2022/07/22 00:58:56;;;;;;;0.22;0.22;;;14.70;99.90;;;;;;5037828;28;20070;-89
2022/07/22 01:01:22;;;;;;;0.28;0.20;;;14.70;99.90;;;;;;5037761;28;20089;-88
2022/07/22 01:03:47;;;;;;;0.10;0.10;;;14.70;99.90;;;;;;5037054;28;20057;-88
2022/07/22 01:06:13;;;;;;;0.20;0.15;;;15.80;99.90;;;;;;5037428;28;20049;-88
2022/07/22 01:08:39;;;;;;;1.02;0.22;;;15.40;99.90;;;;;;5025011;28;20034;-89
2022/07/22 01:11:10;;;;;;;1.13;0.63;;;14.70;99.90;;;;;;5027646;28;20076;-87
2022/07/22 01:13:36;;;;;;;2.60;0.73;;;14.60;99.90;;;;;;5006053;28;20054;-89
2022/07/22 01:16:03;;;;;;;0.00;0.00;;;15.60;99.90;;;;;;5052163;28;20046;-89
2022/07/22 01:18:29;;;;;;;1.92;0.55;;;14.60;99.90;;;;;;5024476;28;20061;-89
2022/07/22 01:20:55;;;;;;;0.43;0.32;;;14.60;99.90;;;;;;5023082;28;20042;-87
2022/07/22 01:23:21;;;;;;;0.65;0.50;;;14.60;99.90;;;;;;5006960;28;20049;-89
2022/07/22 01:25:52;;;;;;;0.35;0.28;;;15.70;99.90;;;;;;5030105;28;20081;-89
2022/07/22 01:28:18;;;;;;;0.30;0.30;;;14.30;99.90;;;;;;5033179;28;20073;-89
2022/07/22 01:30:44;;;;;;;0.00;0.00;;;14.50;99.90;;;;;;5011994;28;20061;-89
2022/07/22 01:33:10;;;;;;;0.10;0.10;;;15.00;99.90;;;;;;5061466;28;20046;-89
2022/07/22 01:35:35;;;;;;;4.78;0.22;;;14.50;99.90;;;;;;5024669;28;20080;-89
2022/07/22 01:38:01;;;;;;;0.00;0.00;;;14.40;99.90;;;;;;5021304;28;20048;-87
2022/07/22 01:40:27;;;;;;;0.00;0.00;;;14.40;99.90;;;;;;5024697;28;20046;-88
2022/07/22 01:42:52;;;;;;;0.00;0.00;;;14.90;99.90;;;;;;5022064;28;20069;-89
2022/07/22 01:45:18;;;;;;;0.05;0.05;;;15.20;99.90;;;;;;5021326;28;20233;-88
2022/07/22 01:47:43;;;;;;;0.95;0.52;;;14.40;99.90;;;;;;5024180;28;20057;-89
2022/07/22 01:50:15;;;;;;;0.98;0.43;;;14.40;99.90;;;;;;5027193;28;20041;-89
2022/07/22 01:52:42;;;;;;;0.35;0.30;;;14.40;99.90;;;;;;5042878;28;20381;-89
2022/07/22 01:55:09;;;;;;;0.20;0.13;;;14.50;99.90;;;;;;5021857;28;20053;-89
2022/07/22 01:57:36;;;;;;;0.32;0.32;;;14.40;99.90;;;;;;5086943;22;20068;-73
2022/07/22 02:00:07;;;;;;;2.50;0.93;;;14.40;99.90;;;;;;5044974;28;20057;-73
2022/07/22 02:02:33;;;;;;;0.20;0.10;;;14.40;99.90;;;;;;5053623;28;20407;-73
2022/07/22 02:04:58;;;;;;;0.00;0.00;;;14.40;99.90;;;;;;5061502;28;20153;-72
2022/07/22 02:07:25;;;;;;;0.30;0.17;;;14.40;99.90;;;;;;5059295;28;20041;-73
2022/07/22 02:09:51;;;;;;;0.22;0.22;;;14.40;99.90;;;;;;5059767;28;20041;-73
2022/07/22 02:12:17;;;;;;;0.20;0.20;;;14.40;99.90;;;;;;5061939;28;20037;-73
2022/07/22 02:14:43;;;;;;;0.00;0.00;;;14.40;99.90;;;;;;5051029;28;20518;-73
2022/07/22 02:17:09;;;;;;;0.00;0.00;;;15.30;99.90;;;;;;5055474;28;20037;-74
2022/07/22 02:19:34;;;;;;;2.75;0.55;;;14.40;99.90;;;;;;5058497;28;20045;-73
2022/07/22 02:22:00;;;;;;;0.10;0.10;;;14.40;99.90;;;;;;5057634;28;20045;-73
2022/07/22 02:24:25;;;;;;;0.10;0.03;;;14.40;99.90;;;;;;5058424;28;20045;-73
2022/07/22 02:26:51;;;;;;;4.30;1.38;;;14.30;99.90;;;;;;5058947;28;20033;-73
2022/07/22 02:29:17;;;;;;;0.00;0.00;;;14.30;99.90;;;;;;5057947;28;20043;-74
2022/07/22 02:31:42;;;;;;;0.05;0.05;;;14.30;99.90;;;;;;5051207;28;20048;-73
2022/07/22 02:34:08;;;;;;;0.28;0.20;;;14.30;99.90;;;;;;5038215;28;20512;-73
2022/07/22 02:36:34;;;;;;;0.28;0.28;;;14.30;99.90;;;;;;5053893;28;20033;-73
2022/07/22 02:38:59;;;;;;;0.00;0.00;;;14.20;99.90;;;;;;5059320;28;20040;-72
2022/07/22 02:41:25;;;;;;;0.10;0.10;;;14.30;99.90;;;;;;5060361;28;20044;-74
2022/07/22 02:43:53;;;;;;;0.15;0.10;;;14.30;99.90;;;;;;5061979;28;20124;-74
2022/07/22 02:46:20;;;;;;;0.00;0.00;;;14.30;99.90;;;;;;5061151;28;20045;-73
2022/07/22 02:48:46;;;;;;;0.32;0.32;;;14.20;99.90;;;;;;5059777;28;20037;-74
2022/07/22 02:51:11;;;;;;;0.00;0.00;;;14.30;99.90;;;;;;5059921;28;20052;-74
2022/07/22 02:53:37;;;;;;;0.38;0.38;;;14.30;99.90;;;;;;5057972;28;20041;-73
2022/07/22 02:56:03;;;;;;;0.20;0.20;;;14.30;99.90;;;;;;5062270;28;20040;-74
2022/07/22 02:58:28;;;;;;;0.85;0.47;;;14.30;99.90;;;;;;5064128;28;20045;-74
2022/07/22 03:00:54;;;;;;;0.43;0.10;;;14.30;99.90;;;;;;5062127;28;20116;-74
2022/07/22 03:03:20;;;;;;;0.25;0.25;;;14.30;99.90;;;;;;5063761;28;20056;-74
2022/07/22 03:05:46;;;;;;;0.30;0.10;;;14.30;99.90;;;;;;5060277;28;20097;-74
2022/07/22 03:08:12;;;;;;;0.43;0.40;;;14.30;99.90;;;;;;5062505;28;20048;-74
2022/07/22 03:10:38;;;;;;;0.08;0.00;;;14.30;99.90;;;;;;5060728;28;20033;-74
2022/07/22 03:13:04;;;;;;;0.05;0.05;;;14.30;99.90;;;;;;5064405;28;20071;-74
2022/07/22 03:15:29;;;;;;;0.32;0.32;;;14.20;99.90;;;;;;5062706;28;20041;-74
2022/07/22 03:17:55;;;;;;;0.22;0.17;;;14.20;99.90;;;;;;5063421;28;20056;-74
2022/07/22 03:20:21;;;;;;;0.00;0.00;;;14.20;99.90;;;;;;5064699;28;20064;-74
2022/07/22 03:22:46;;;;;;;0.00;0.00;;;14.20;99.90;;;;;;5063638;28;20081;-74
2022/07/22 03:25:12;;;;;;;0.40;0.30;;;14.20;99.90;;;;;;5063209;28;20045;-74
2022/07/22 03:27:38;;;;;;;0.00;0.00;;;14.20;99.90;;;;;;5043998;28;20400;-74
2022/07/22 03:30:05;;;;;;;0.20;0.20;;;14.20;99.90;;;;;;5044586;28;20049;-73
2022/07/22 03:32:31;;;;;;;0.10;0.10;;;14.20;99.90;;;;;;5042222;28;20104;-74
2022/07/22 03:34:56;;;;;;;0.20;0.17;;;14.20;99.90;;;;;;5046208;28;20033;-74
2022/07/22 03:37:22;;;;;;;0.00;0.00;;;14.20;99.90;;;;;;5063299;28;20086;-73
2022/07/22 03:39:48;;;;;;;0.00;0.00;;;14.20;99.90;;;;;;5064612;28;20063;-74
2022/07/22 03:42:13;;;;;;;0.00;0.00;;;14.20;99.90;;;;;;5064054;28;20056;-73
2022/07/22 03:44:39;;;;;;;0.00;0.00;;;14.20;99.90;;;;;;5060867;28;20048;-74
2022/07/22 03:47:05;;;;;;;0.00;0.00;;;14.20;99.90;;;;;;5042165;28;20373;-73
2022/07/22 03:49:31;;;;;;;0.00;0.00;;;14.20;99.90;;;;;;5044561;28;20405;-74
2022/07/22 03:51:57;;;;;;;0.10;0.10;;;14.20;99.90;;;;;;5045669;28;20073;-74
2022/07/22 03:54:23;;;;;;;0.35;0.32;;;14.20;99.90;;;;;;5045585;28;20048;-73
2022/07/22 03:56:48;;;;;;;0.25;0.25;;;14.10;99.90;;;;;;5062719;28;20135;-74
2022/07/22 03:59:14;;;;;;;0.28;0.28;;;14.10;99.90;;;;;;5064977;28;20090;-74
2022/07/22 04:01:40;;;;;;;0.00;0.00;;;14.20;99.90;;;;;;5065229;28;20095;-74
2022/07/22 04:04:05;;;;;;;0.00;0.00;;;14.20;99.90;;;;;;5062775;28;20053;-74
2022/07/22 04:06:31;;;;;;;0.10;0.10;;;14.20;99.90;;;;;;5063044;28;20052;-74
2022/07/22 04:08:57;;;;;;;0.05;0.05;;;14.20;99.90;;;;;;5064217;28;20036;-74
2022/07/22 04:11:23;;;;;;;0.60;0.43;;;14.20;99.90;;;;;;5065086;28;20113;-74
2022/07/22 04:13:48;;;;;;;0.15;0.13;;;14.20;99.90;;;;;;5064713;28;20041;-74
2022/07/22 04:16:14;;;;;;;0.00;0.00;;;14.20;99.90;;;;;;5049195;28;20052;-74
2022/07/22 04:18:39;;;;;;;0.00;0.00;;;14.20;99.90;;;;;;5042697;28;20050;-74
2022/07/22 04:21:05;;;;;;;0.00;0.00;;;14.20;99.90;;;;;;5041702;28;20046;-74
2022/07/22 04:23:31;;;;;;;0.30;0.30;;;14.20;99.90;;;;;;5039822;28;20128;-74
2022/07/22 04:25:57;;;;;;;0.00;0.00;;;14.30;99.90;;;;;;5052559;28;20040;-74
2022/07/22 04:28:22;;;;;;;0.70;0.35;;;14.30;99.90;;;;;;5060608;28;20056;-74
2022/07/22 04:30:48;;;;;;;0.10;0.10;;;14.30;99.90;;;;;;5059163;28;20040;-74
2022/07/22 04:33:13;;;;;;;0.60;0.60;;;14.40;99.90;;;;;;5059973;28;20468;-74
2022/07/22 04:35:39;;;;;;;0.00;0.00;;;14.40;99.90;;;;;;5051771;28;20046;-74
2022/07/22 04:38:05;;;;;;;0.35;0.10;;;14.50;99.90;;;;;;5039195;28;20041;-74
2022/07/22 04:40:30;;;;;;;0.10;0.10;;;14.50;99.90;;;;;;5039442;28;20381;-75
2022/07/22 04:42:56;;;;;;;0.00;0.00;;;14.50;99.90;;;;;;5039155;28;20068;-74
2022/07/22 04:45:21;;;;;;;0.00;0.00;;;14.50;99.90;;;;;;5044904;28;20029;-74
2022/07/22 04:47:47;;;;;;;0.00;0.00;;;14.50;99.90;;;;;;5061662;28;20403;-74
2022/07/22 04:50:12;;;;;;;0.10;0.10;;;14.50;99.90;;;;;;5060962;28;20116;-74
2022/07/22 04:52:38;;;;;;;0.03;0.03;;;14.60;99.90;;;;;;5060735;28;20041;-74
2022/07/22 04:55:04;;;;;;;0.65;0.43;;;14.70;99.90;;;;;;5058917;28;20045;-75
2022/07/22 04:57:30;;;;;;;0.00;0.00;;;14.60;99.90;;;;;;5061030;28;20048;-74
2022/07/22 04:59:55;;;;;;;2.50;0.55;;;14.60;99.90;;;;;;5060376;28;20060;-74
2022/07/22 05:02:21;;;;;;;0.35;0.20;;;14.70;99.90;;;;;;5060154;28;20049;-74
2022/07/22 05:04:46;;;;;;;0.38;0.38;;;14.70;99.90;;;;;;5059993;28;20041;-74
2022/07/22 05:07:12;;;;;;;0.00;0.00;;;14.80;99.90;;;;;;5041234;28;20041;-74
2022/07/22 05:09:38;;;;;;;0.85;0.30;;;14.80;99.90;;;;;;5041287;28;20068;-74
2022/07/22 05:12:04;;;;;;;0.05;0.05;;;15.00;99.90;;;;;;5040769;28;20112;-74
2022/07/22 05:14:29;;;;;;;2.92;0.65;;;14.90;99.90;;;;;;5040261;28;20045;-74
2022/07/22 05:16:55;;;;;;;2.13;0.52;;;15.10;99.90;;;;;;5054423;28;20041;-74
2022/07/22 05:19:20;;;;;;;0.00;0.00;;;15.00;99.90;;;;;;5056366;28;20681;-74
2022/07/22 05:21:46;;;;;;;1.75;1.00;;;15.10;99.90;;;;;;5056196;28;20049;-74
2022/07/22 05:24:13;;;;;;;0.28;0.00;;;15.20;99.90;;;;;;5046282;28;20045;-74
2022/07/22 05:26:39;;;;;;;0.00;0.00;;;15.20;99.90;;;;;;5043829;28;20109;-75
2022/07/22 05:29:04;;;;;;;0.55;0.35;;;15.20;99.90;;;;;;5033942;28;20157;-74
2022/07/22 05:31:30;;;;;;;0.00;0.00;;;15.30;99.90;;;;;;5037209;28;20041;-74
2022/07/22 05:33:56;;;;;;;0.00;0.00;;;15.40;99.90;;;;;;5055568;28;20128;-74
2022/07/22 05:36:21;;;;;;;0.00;0.00;;;15.40;99.90;;;;;;5055194;28;20053;-74
2022/07/22 05:38:47;;;;;;;0.00;0.00;;;15.50;99.90;;;;;;5056205;28;20037;-74
2022/07/22 05:41:13;;;;;;;0.00;0.00;;;15.60;99.90;;;;;;5056825;28;20040;-74
2022/07/22 05:43:38;;;;;;;0.00;0.00;;;15.70;99.90;;;;;;5056360;28;20037;-74
2022/07/22 05:46:04;;;;;;;0.38;0.30;;;15.70;99.90;;;;;;5056935;28;20052;-74
2022/07/22 05:48:30;;;;;;;0.28;0.17;;;15.70;99.90;;;;;;5056170;28;20040;-74
2022/07/22 05:50:56;;;;;;;0.63;0.63;;;15.90;99.90;;;;;;5054644;28;20044;-74
2022/07/22 05:53:21;;;;;;;2.72;0.40;;;16.10;99.90;;;;;;5054271;28;20071;-74
2022/07/22 05:55:47;;;;;;;0.00;0.00;;;15.90;99.90;;;;;;5055044;28;20471;-74
2022/07/22 05:58:12;;;;;;;0.00;0.00;;;16.00;99.90;;;;;;5055951;28;20048;-74
2022/07/22 06:00:39;;;;;;;0.00;0.00;;;16.00;99.90;;;;;;5055861;28;20403;-74
2022/07/22 06:03:05;;;;;;;0.20;0.20;;;16.00;99.90;;;;;;5056770;28;20525;-74
2022/07/22 06:05:31;;;;;;;0.03;0.03;;;16.10;99.90;;;;;;5058157;28;20043;-74
2022/07/22 06:07:56;;;;;;;0.00;0.00;;;16.20;99.90;;;;;;5058769;28;20116;-73
2022/07/22 06:10:22;;;;;;;0.15;0.15;;;16.30;99.90;;;;;;5058264;28;20041;-74
2022/07/22 06:12:47;;;;;;;0.13;0.13;;;16.40;99.90;;;;;;5057407;28;20071;-74
2022/07/22 06:15:13;;;;;;;0.68;0.65;;;16.40;99.90;;;;;;5058442;28;20055;-74
2022/07/22 06:17:38;;;;;;;4.47;0.52;;;16.50;99.90;;;;;;5057741;28;20044;-74
2022/07/22 06:20:05;;;;;;;0.60;0.35;;;16.50;99.90;;;;;;5050852;28;20045;-74
2022/07/22 06:22:31;;;;;;;0.68;0.52;;;16.60;99.90;;;;;;5035063;28;20463;-74
2022/07/22 06:24:56;;;;;;;0.50;0.47;;;16.50;99.90;;;;;;5035993;28;20097;-74
2022/07/22 06:27:22;;;;;;;0.00;0.00;;;16.60;99.90;;;;;;5033595;28;20672;-74
2022/07/22 06:29:47;;;;;;;0.03;0.03;;;16.60;99.90;;;;;;5032755;28;20118;-74
2022/07/22 06:32:13;;;;;;;0.08;0.08;;;16.60;99.90;;;;;;5033448;28;20443;-73
2022/07/22 06:34:38;;;;;;;0.03;0.03;;;16.70;99.90;;;;;;5034585;28;20044;-74
2022/07/22 06:37:05;;;;;;;0.00;0.00;;;16.80;99.90;;;;;;5034565;28;20132;-74
2022/07/22 06:39:30;;;;;;;0.15;0.15;;;16.80;99.90;;;;;;5033849;28;20137;-74
2022/07/22 06:41:56;;;;;;;0.30;0.30;;;16.90;99.90;;;;;;5033975;28;20044;-73
2022/07/22 06:44:22;;;;;;;0.28;0.28;;;17.10;99.90;;;;;;5033302;28;20476;-74
2022/07/22 06:46:48;;;;;;;0.00;0.00;;;17.20;99.90;;;;;;5034179;28;20045;-73
2022/07/22 06:49:14;;;;;;;0.22;0.15;;;17.30;99.90;;;;;;5033747;28;20057;-73
2022/07/22 06:51:39;;;;;;;1.02;0.82;;;17.40;99.90;;;;;;5033395;28;20407;-73
2022/07/22 06:54:05;;;;;;;0.00;0.00;;;17.50;99.90;;;;;;5032669;28;20127;-73
2022/07/22 06:56:30;;;;;;;0.00;0.00;;;17.50;99.90;;;;;;5032674;28;20049;-73
2022/07/22 06:58:56;;;;;;;0.00;0.00;;;17.60;99.90;;;;;;5033374;28;20127;-73
2022/07/22 07:01:21;;;;;;;0.00;0.00;;;17.60;99.90;;;;;;5033618;28;20053;-74
2022/07/22 07:03:47;;;;;;;0.15;0.10;;;17.70;99.90;;;;;;5033368;28;20049;-74
2022/07/22 07:06:13;;;;;;;0.65;0.65;;;17.90;99.90;;;;;;5033093;28;20049;-73
2022/07/22 07:08:39;;;;;;;0.35;0.30;;;17.90;99.90;;;;;;5033072;28;20052;-73
2022/07/22 07:11:05;;;;;;;0.00;0.00;;;18.10;99.90;;;;;;5034890;28;20472;-73
2022/07/22 07:13:31;;;;;;;0.45;0.30;;;18.20;99.90;;;;;;5033936;28;20049;-73
2022/07/22 07:15:57;;;;;;;0.00;0.00;;;18.20;99.90;;;;;;5035016;28;20084;-73
2022/07/22 07:18:23;;;;;;;0.00;0.00;;;18.50;99.90;;;;;;5037364;28;20379;-73
2022/07/22 07:20:48;;;;;;;0.57;0.52;;;18.20;99.90;;;;;;5037752;28;20048;-73
2022/07/22 07:23:14;;;;;;;0.00;0.00;;;18.50;99.90;;;;;;5038389;28;20121;-73
2022/07/22 07:25:40;;;;;;;0.70;0.15;;;18.60;99.90;;;;;;5038665;28;20037;-73
2022/07/22 07:28:05;;;;;;;0.20;0.20;;;18.60;99.90;;;;;;5037469;28;20053;-73
2022/07/22 07:30:31;;;;;;;0.00;0.00;;;18.60;99.90;;;;;;5036884;28;20046;-73
2022/07/22 07:32:56;;;;;;;0.00;0.00;;;18.70;99.90;;;;;;5036746;28;20049;-73
2022/07/22 07:35:22;;;;;;;0.60;0.52;;;18.80;99.90;;;;;;5037839;28;20105;-73
2022/07/22 07:37:48;;;;;;;0.32;0.20;;;18.80;99.90;;;;;;5037093;28;20049;-73
2022/07/22 07:40:14;;;;;;;0.00;0.00;;;19.00;99.90;;;;;;5037440;28;20049;-73
2022/07/22 07:42:39;;;;;;;0.25;0.22;;;19.10;99.90;;;;;;5037214;28;20492;-73
2022/07/22 07:45:05;;;;;;;0.10;0.10;;;19.40;99.90;;;;;;5036604;28;20045;-73
2022/07/22 07:47:31;;;;;;;0.30;0.30;;;19.20;99.90;;;;;;5038089;28;20044;-74
2022/07/22 07:50:00;;;;;;;0.15;0.15;;;18.90;99.90;;;;;;5037377;28;20399;-73
2022/07/22 07:52:26;;;;;;;0.00;0.00;;;19.20;99.90;;;;;;5037711;28;20088;-73
2022/07/22 07:54:52;;;;;;;0.00;0.00;;;19.20;99.90;;;;;;5037076;28;20046;-73
2022/07/22 07:57:18;;;;;;;0.55;0.30;;;19.20;99.90;;;;;;5035779;28;20069;-73
2022/07/22 07:59:43;;;;;;;0.75;0.40;;;19.20;99.90;;;;;;5036965;28;20080;-73
2022/07/22 08:02:09;;;;;;;4.30;0.20;;;19.10;99.90;;;;;;5037131;28;20441;-73
2022/07/22 08:04:36;;;;;;;0.68;0.63;;;18.90;99.90;;;;;;5038266;28;20050;-73
2022/07/22 08:07:02;;;;;;;0.00;0.00;;;18.80;99.90;;;;;;5037118;28;20092;-73
2022/07/22 08:09:28;;;;;;;3.03;1.55;;;18.80;99.90;;;;;;5037285;28;20080;-73
2022/07/22 08:11:54;;;;;;;0.00;0.00;;;19.00;99.90;;;;;;5038438;28;20430;-74
2022/07/22 08:14:19;;;;;;;0.00;0.00;;;18.90;99.90;;;;;;5035997;28;20046;-74
2022/07/22 08:16:45;;;;;;;0.00;0.00;;;19.20;99.90;;;;;;5037242;28;20050;-73
2022/07/22 08:19:11;;;;;;;0.17;0.15;;;19.20;99.90;;;;;;5038817;28;20052;-73
2022/07/22 08:21:37;;;;;;;0.03;0.03;;;18.90;99.90;;;;;;5042265;28;20049;-73
2022/07/22 08:24:02;;;;;;;0.05;0.05;;;19.10;99.90;;;;;;5041907;28;20042;-73
2022/07/22 08:26:28;;;;;;;0.00;0.00;;;19.20;99.90;;;;;;5043233;28;20401;-73
2022/07/22 08:28:54;;;;;;;3.83;0.50;;;19.40;99.90;;;;;;5043064;28;20046;-73
2022/07/22 08:31:19;;;;;;;0.47;0.22;;;20.50;99.90;;;;;;5043853;28;20042;-73
2022/07/22 08:33:45;;;;;;;0.00;0.00;;;19.60;99.90;;;;;;5041852;28;20045;-73
2022/07/22 08:36:10;;;;;;;0.35;0.32;;;19.60;99.90;;;;;;5040917;28;20044;-73
2022/07/22 08:38:36;;;;;;;0.20;0.20;;;19.80;99.90;;;;;;5041300;28;20503;-73
2022/07/22 08:41:03;;;;;;;0.00;0.00;;;20.00;99.90;;;;;;5040573;28;20045;-73
2022/07/22 08:43:31;;;;;;;0.00;0.00;;;19.80;99.90;;;;;;5039877;28;20049;-73
2022/07/22 08:45:57;;;;;;;0.30;0.15;;;20.00;99.90;;;;;;5039802;28;20091;-73
2022/07/22 08:48:22;;;;;;;1.88;0.43;;;19.80;99.90;;;;;;5040353;28;20049;-73
2022/07/22 08:50:48;;;;;;;0.70;0.55;;;19.80;99.90;;;;;;5040697;28;20053;-73
2022/07/22 08:53:15;;;;;;;0.00;0.00;;;19.50;99.90;;;;;;5040172;28;20048;-73
2022/07/22 08:55:45;;;;;;;0.00;0.00;;;19.30;99.90;;;;;;5039418;28;20048;-73
2022/07/22 08:58:11;;;;;;;0.38;0.38;;;19.10;99.90;;;;;;5039004;28;20406;-73
2022/07/22 09:00:37;;;;;;;0.00;0.00;;;19.10;99.90;;;;;;5039890;28;20056;-73
2022/07/22 09:03:23;;;;;;;0.20;0.20;;;19.20;99.90;;;;;;5037128;28;20059;-73
2022/07/22 09:05:50;;;;;;;0.10;0.03;;;19.20;99.90;;;;;;5038529;28;20038;-73
2022/07/22 09:08:16;;;;;;;0.25;0.10;;;19.50;99.90;;;;;;5037241;28;20048;-73
2022/07/22 09:10:42;;;;;;;0.52;0.45;;;19.80;99.90;;;;;;5037583;28;20116;-73
2022/07/22 09:13:09;;;;;;;0.13;0.10;;;20.10;99.90;;;;;;5037098;28;20063;-73
2022/07/22 09:15:40;;;;;;;4.38;0.57;;;20.20;99.90;;;;;;5036049;28;20038;-73
2022/07/22 09:18:09;;;;;;;0.00;0.00;;;20.50;99.90;;;;;;5037272;28;20457;-73
2022/07/22 09:20:36;;;;;;;0.00;0.00;;;20.70;99.90;;;;;;5036665;28;20046;-73
2022/07/22 09:23:08;;;;;;;0.25;0.10;;;20.80;99.90;;;;;;5033426;28;20046;-73
2022/07/22 09:25:36;;;;;;;0.95;0.47;;;20.70;99.90;;;;;;5033889;28;20666;-74
2022/07/22 09:28:07;;;;;;;8.65;0.65;;;20.40;99.90;;;;;;5034236;28;20061;-73
2022/07/22 09:30:36;;;;;;;0.00;0.00;;;20.10;99.90;;;;;;5032884;28;20061;-73
2022/07/22 09:33:03;;;;;;;0.00;0.00;;;19.90;99.90;;;;;;5033088;28;20078;-73
2022/07/22 09:35:28;;;;;;;0.00;0.00;;;19.70;99.90;;;;;;5034863;28;20049;-73
2022/07/22 09:38:01;;;;;;;0.00;0.00;;;19.60;99.90;;;;;;5034976;28;20133;-73
2022/07/22 09:40:31;;;;;;;0.30;0.20;;;19.60;99.90;;;;;;5035866;28;20056;-73
2022/07/22 09:42:57;;;;;;;0.00;0.00;;;19.30;99.90;;;;;;5035058;28;20091;-74
2022/07/22 09:45:28;;;;;;;0.20;0.17;;;19.00;99.90;;;;;;5033014;28;20052;-75
2022/07/22 09:47:56;;;;;;;1.98;0.63;;;18.90;99.90;;;;;;5032058;28;20411;-75
2022/07/22 09:50:27;;;;;;;1.85;0.60;;;18.90;99.90;;;;;;5031647;28;20562;-74
2022/07/22 09:52:55;;;;;;;0.00;0.00;;;18.60;99.90;;;;;;5031669;28;20056;-75
2022/07/22 09:55:22;;;;;;;0.00;0.00;;;18.80;99.90;;;;;;5031508;28;20499;-74
2022/07/22 09:57:50;;;;;;;0.00;0.00;;;18.60;99.90;;;;;;5031272;28;20503;-74
2022/07/22 10:00:18;;;;;;;0.13;0.03;;;18.60;99.90;;;;;;5030534;28;20128;-75
2022/07/22 10:02:54;;;;;;;0.88;0.52;;;18.70;99.90;;;;;;5031869;28;20045;-75
2022/07/22 10:05:23;;;;;;;0.00;0.00;;;18.60;99.90;;;;;;5042407;28;20037;-75
2022/07/22 10:07:50;;;;;;;0.00;0.00;;;18.80;99.90;;;;;;5045396;28;20052;-75
2022/07/22 10:10:18;;;;;;;0.35;0.20;;;18.90;99.90;;;;;;5042015;28;20048;-75
2022/07/22 10:12:47;;;;;;;0.05;0.05;;;18.90;99.90;;;;;;5042152;28;20112;-75
2022/07/22 10:15:13;;;;;;;0.00;0.00;;;19.00;99.90;;;;;;5041607;28;20053;-75
2022/07/22 10:17:42;;;;;;;0.00;0.00;;;19.10;99.90;;;;;;5042876;28;20041;-75
2022/07/22 10:20:09;;;;;;;0.00;0.00;;;19.20;99.90;;;;;;5039177;28;20541;-75
2022/07/22 10:22:43;;;;;;;0.20;0.15;;;19.00;99.90;;;;;;5034495;28;20106;-74
2022/07/22 10:25:11;;;;;;;0.00;0.00;;;19.00;99.90;;;;;;5033347;28;20057;-73
2022/07/22 10:27:54;;;;;;;1.20;0.28;;;18.90;99.90;;;;;;5032203;28;20053;-74
2022/07/22 10:30:33;;;;;;;1.85;0.43;;;19.00;99.90;;;;;;5032899;28;20049;-73
2022/07/22 10:33:07;;;;;;;0.10;0.10;;;19.20;99.90;;;;;;5032677;28;20119;-74
2022/07/22 10:35:34;;;;;;;0.35;0.30;;;19.40;99.90;;;;;;5031745;28;20042;-74
2022/07/22 10:38:03;;;;;;;0.00;0.00;;;19.40;99.90;;;;;;5030541;28;20128;-74
2022/07/22 10:40:31;;;;;;;0.00;0.00;;;19.60;99.90;;;;;;5032907;28;20124;-74
2022/07/22 10:42:57;;;;;;;0.15;0.10;;;19.40;99.90;;;;;;5032253;28;20049;-74
2022/07/22 10:45:24;;;;;;;0.00;0.00;;;19.40;99.90;;;;;;5031641;28;20516;-74
2022/07/22 10:47:55;;;;;;;0.00;0.00;;;19.50;99.90;;;;;;5029399;28;20097;-74
2022/07/22 10:50:37;;;;;;;0.10;0.05;;;19.90;99.90;;;;;;5032099;28;20049;-74
2022/07/22 10:53:07;;;;;;;0.00;0.00;;;19.90;99.90;;;;;;5031988;28;20088;-74
2022/07/22 10:55:34;;;;;;;0.00;0.00;;;20.10;99.90;;;;;;5032269;28;20157;-73
2022/07/22 10:57:59;;;;;;;0.00;0.00;;;20.30;99.90;;;;;;5031595;28;20054;-74
2022/07/22 11:00:25;;;;;;;0.00;0.00;;;20.50;99.90;;;;;;5032021;28;20049;-74
2022/07/22 11:02:51;;;;;;;0.00;0.00;;;20.80;99.90;;;;;;5031626;28;20088;-74
2022/07/22 11:05:30;;;;;;;0.00;0.00;;;21.20;99.90;;;;;;5031745;28;20046;-74
2022/07/22 11:07:56;;;;;;;0.03;0.00;;;21.60;99.90;;;;;;5030654;28;20045;-74
2022/07/22 11:10:21;;;;;;;0.00;0.00;;;21.90;99.90;;;;;;5032133;28;20125;-74
2022/07/22 11:12:49;;;;;;;0.70;0.45;;;22.10;99.90;;;;;;5031878;28;20117;-74
2022/07/22 11:15:15;;;;;;;0.60;0.52;;;22.40;99.90;;;;;;5031590;28;20045;-74
2022/07/22 11:17:41;;;;;;;0.85;0.13;;;23.00;99.90;;;;;;5031166;28;20084;-73
2022/07/22 11:20:09;;;;;;;0.10;0.08;;;23.30;99.90;;;;;;5032363;28;20126;-74
2022/07/22 11:22:36;;;;;;;0.00;0.00;;;23.40;99.90;;;;;;5032597;28;20487;-74
2022/07/22 11:25:06;;;;;;;0.13;0.08;;;23.80;99.90;;;;;;5030976;28;20081;-74
2022/07/22 11:27:32;;;;;;;0.20;0.10;;;23.60;80.90;;;;;;5031985;28;20075;-74
2022/07/22 11:29:58;;;;;;;0.10;0.10;;;23.70;99.90;;;;;;5030226;28;20378;-74
2022/07/22 11:32:27;;;;;;;1.20;0.25;;;23.10;91.60;;;;;;5030353;28;20096;-74
2022/07/22 11:34:53;;;;;;;0.00;0.00;;;23.20;99.90;;;;;;5030616;28;20128;-74
2022/07/22 11:37:24;;;;;;;0.00;0.00;;;23.10;92.20;;;;;;5030369;28;20095;-74
2022/07/22 11:39:51;;;;;;;0.08;0.05;;;23.00;99.90;;;;;;5030498;28;20053;-74
2022/07/22 11:42:17;;;;;;;0.20;0.20;;;22.90;99.90;;;;;;5030894;28;20133;-74
2022/07/22 11:44:43;;;;;;;0.10;0.10;;;22.50;92.60;;;;;;5030648;28;20189;-74
2022/07/22 11:47:10;;;;;;;0.10;0.10;;;21.80;91.40;;;;;;5030636;28;20044;-74
2022/07/22 11:49:37;;;;;;;0.00;0.00;;;21.70;99.90;;;;;;5030844;28;20072;-74
2022/07/22 11:52:07;;;;;;;0.00;0.00;;;21.60;97.40;;;;;;5030403;28;20385;-73
2022/07/22 11:54:33;;;;;;;0.38;0.22;;;21.50;99.90;;;;;;5030507;28;20088;-73
2022/07/22 11:56:59;;;;;;;0.00;0.00;;;21.60;99.90;;;;;;5030707;28;20092;-73
2022/07/22 11:59:24;;;;;;;0.08;0.05;;;21.90;99.90;;;;;;5031322;28;20045;-73
2022/07/22 12:01:50;;;;;;;0.00;0.00;;;22.00;92.90;;;;;;5030608;28;20079;-73
2022/07/22 12:04:25;;;;;;;0.00;0.00;;;21.90;99.90;;;;;;5029675;28;20045;-73
2022/07/22 12:06:53;;;;;;;0.00;0.00;;;22.20;99.90;;;;;;5030160;28;20045;-73
2022/07/22 12:09:19;;;;;;;0.00;0.00;;;22.40;99.90;;;;;;5030541;28;20049;-73
2022/07/22 12:11:47;;;;;;;0.00;0.00;;;22.50;88.80;;;;;;5030949;28;20049;-73
2022/07/22 12:14:18;;;;;;;0.20;0.10;;;22.10;79.30;;;;;;5033882;28;20045;-72
2022/07/22 12:17:00;;;;;;;0.00;0.00;;;22.10;87.70;;;;;;5034276;28;20120;-74
2022/07/22 12:19:30;;;;;;;0.00;0.00;;;22.10;83.70;;;;;;5032972;28;20524;-73
2022/07/22 12:22:00;;;;;;;0.47;0.20;;;22.20;96.80;;;;;;5031453;28;20053;-74
2022/07/22 12:24:34;;;;;;;0.10;0.10;;;22.30;90.00;;;;;;5033268;28;20087;-73
2022/07/22 12:27:20;;;;;;;0.00;0.00;;;22.20;96.20;;;;;;5031029;28;20060;-73
2022/07/22 12:29:48;;;;;;;0.55;0.45;;;22.60;92.80;;;;;;5032512;28;20107;-73
2022/07/22 12:32:22;;;;;;;0.45;0.45;;;22.70;97.00;;;;;;5032818;28;20042;-73
2022/07/22 12:34:58;;;;;;;0.00;0.00;;;22.50;97.70;;;;;;5032786;28;20042;-73
2022/07/22 12:37:29;;;;;;;0.10;0.10;;;22.60;88.10;;;;;;5032597;28;20541;-73
2022/07/22 12:39:59;;;;;;;0.00;0.00;;;22.40;86.70;;;;;;5032823;28;20499;-73
2022/07/22 12:42:31;;;;;;;0.00;0.00;;;22.20;80.40;;;;;;5032987;28;20041;-73
2022/07/22 12:45:12;;;;;;;0.00;0.00;;;22.20;83.50;;;;;;5032807;28;20091;-73